Time;durP1;ratioP1;P1;durP2;ratioP2;P2;SDS_P1;SDS_P2;PMS_P1;PMS_P2;Temp;Humidity;BMP_temperature;BMP_pressure;BME280_temperature;BME280_humidity;BME280_pressure;Samples;Min_cycle;Max_cycle;Signal;HPM_P1;HPM_P2
2023/01/18 00:01:58;;;;;;;8.70;4.97;;;;;;;;;;5089159;28;20814;-80
2023/01/18 00:04:24;;;;;;;11.65;5.50;;;;;;;;;;5080039;28;20510;-79
2023/01/18 00:06:50;;;;;;;8.02;4.38;;;;;;;;;;5096943;28;20424;-80
2023/01/18 00:09:16;;;;;;;7.68;4.75;;;;;;;;;;5072865;28;20575;-80
2023/01/18 00:11:42;;;;;;;9.40;5.00;;;;;;;;;;5073786;28;20438;-80
2023/01/18 00:14:08;;;;;;;7.55;4.70;;;;;;;;;;5074986;28;20928;-79
2023/01/18 00:16:34;;;;;;;8.95;4.88;;;;;;;;;;5108136;28;20785;-80
2023/01/18 00:19:00;;;;;;;11.07;5.10;;;;;;;;;;5069719;28;20439;-80
2023/01/18 00:21:27;;;;;;;10.73;5.00;;;;;;;;;;5083785;28;20468;-80
2023/01/18 00:23:54;;;;;;;8.37;4.87;;;;;;;;;;5072923;28;20810;-79
2023/01/18 00:26:20;;;;;;;9.32;5.25;;;;;;;;;;5072351;28;20452;-79
2023/01/18 00:28:46;;;;;;;9.43;5.53;;;;;;;;;;5073579;28;20763;-77
2023/01/18 00:31:14;;;;;;;8.23;5.28;;;;;;;;;;5073665;28;20425;-77
2023/01/18 00:33:44;;;;;;;11.20;7.28;;;;;;;;;;5071397;28;20427;-77
2023/01/18 00:36:11;;;;;;;9.40;6.32;;;;;;;;;;5071710;28;20407;-77
2023/01/18 00:38:37;;;;;;;8.93;6.05;;;;;;;;;;5087404;28;20421;-77
2023/01/18 00:41:03;;;;;;;10.02;5.63;;;;;;;;;;5073768;28;20426;-77
2023/01/18 00:43:38;;;;;;;8.45;5.25;;;;;;;;;;5076225;28;20422;-77
2023/01/18 00:46:11;;;;;;;9.23;5.43;;;;;;;;;;5071964;28;20412;-77
2023/01/18 00:48:38;;;;;;;10.15;6.25;;;;;;;;;;5080147;28;20414;-77
2023/01/18 00:51:05;;;;;;;10.73;6.82;;;;;;;;;;5084710;28;20421;-77
2023/01/18 00:53:31;;;;;;;8.20;5.70;;;;;;;;;;5091659;28;20477;-77
2023/01/18 00:55:57;;;;;;;10.73;6.00;;;;;;;;;;5089886;28;21021;-77
2023/01/18 00:58:24;;;;;;;11.65;6.10;;;;;;;;;;5066544;28;20436;-76
2023/01/18 01:00:51;;;;;;;11.05;6.05;;;;;;;;;;5082870;28;20486;-77
2023/01/18 01:03:17;;;;;;;12.55;8.68;;;;;;;;;;5089649;28;20425;-77
2023/01/18 01:08:28;;;;;;;7.90;5.80;;;;;;;;;;5080694;28;20521;-77
2023/01/18 01:11:03;;;;;;;11.15;5.68;;;;;;;;;;5087651;28;20472;-76
2023/01/18 01:27:12;;;;;;;11.63;7.30;;;;;;;;;;5123141;27;20558;-77
2023/01/18 01:29:39;;;;;;;8.87;6.67;;;;;;;;;;5089375;28;20853;-77
2023/01/18 01:32:06;;;;;;;10.68;6.53;;;;;;;;;;5089725;28;20418;-77
2023/01/18 01:34:32;;;;;;;10.77;6.40;;;;;;;;;;5088971;28;20446;-77
2023/01/18 01:36:58;;;;;;;10.57;6.70;;;;;;;;;;5086501;28;20907;-77
2023/01/18 01:39:24;;;;;;;14.40;8.90;;;;;;;;;;5102504;28;20418;-77
2023/01/18 01:41:53;;;;;;;12.10;7.00;;;;;;;;;;5088968;28;20493;-76
2023/01/18 01:44:19;;;;;;;10.65;6.80;;;;;;;;;;5089693;28;20431;-77
2023/01/18 01:46:48;;;;;;;10.47;6.23;;;;;;;;;;5073855;28;20409;-77
2023/01/18 01:49:20;;;;;;;9.55;6.30;;;;;;;;;;5089215;28;20417;-76
2023/01/18 01:51:48;;;;;;;11.48;6.45;;;;;;;;;;5087718;28;20489;-77
2023/01/18 01:54:16;;;;;;;13.95;7.03;;;;;;;;;;5072558;28;20986;-77
2023/01/18 01:56:44;;;;;;;11.15;6.78;;;;;;;;;;5072968;28;20422;-77
2023/01/18 01:59:10;;;;;;;9.63;6.80;;;;;;;;;;5074005;28;20402;-77
2023/01/18 02:01:37;;;;;;;10.85;6.78;;;;;;;;;;5086110;28;20438;-78
2023/01/18 02:04:03;;;;;;;10.38;6.90;;;;;;;;;;5072615;28;20780;-77
2023/01/18 02:06:35;;;;;;;11.07;7.15;;;;;;;;;;5087322;28;20409;-78
2023/01/18 02:09:02;;;;;;;14.20;7.70;;;;;;;;;;5096456;28;20413;-77
2023/01/18 02:11:29;;;;;;;12.73;7.88;;;;;;;;;;5070487;28;20415;-77
2023/01/18 02:13:57;;;;;;;11.70;7.82;;;;;;;;;;5082546;28;20426;-78
2023/01/18 02:16:32;;;;;;;12.30;7.60;;;;;;;;;;5070352;28;20488;-78
2023/01/18 02:19:04;;;;;;;10.55;7.38;;;;;;;;;;5070594;28;20439;-78
2023/01/18 02:21:36;;;;;;;11.63;7.72;;;;;;;;;;5091576;28;20441;-77
2023/01/18 02:24:17;;;;;;;11.93;7.43;;;;;;;;;;5076995;28;20497;-77
2023/01/18 02:26:52;;;;;;;11.85;7.53;;;;;;;;;;5090452;28;20487;-77
2023/01/18 02:29:34;;;;;;;11.48;7.00;;;;;;;;;;5074061;28;20698;-78
2023/01/18 02:32:07;;;;;;;10.27;6.80;;;;;;;;;;5063618;28;20414;-77
2023/01/18 02:34:40;;;;;;;13.25;6.78;;;;;;;;;;5088799;28;20471;-77
2023/01/18 02:37:10;;;;;;;9.82;6.88;;;;;;;;;;5079220;28;20421;-78
2023/01/18 02:39:43;;;;;;;10.30;6.93;;;;;;;;;;5091814;28;20414;-77
2023/01/18 02:47:59;;;;;;;11.30;7.93;;;;;;;;;;5094296;28;20420;-77
2023/01/18 02:50:26;;;;;;;14.35;7.95;;;;;;;;;;5075812;28;20497;-77
2023/01/18 02:52:53;;;;;;;11.57;8.50;;;;;;;;;;5091218;28;20414;-77
2023/01/18 02:55:19;;;;;;;15.15;8.82;;;;;;;;;;5074681;28;20421;-77
2023/01/18 02:57:45;;;;;;;15.88;9.30;;;;;;;;;;5088796;28;20424;-77
2023/01/18 03:00:16;;;;;;;14.02;9.10;;;;;;;;;;5057327;28;20463;-77
2023/01/18 03:02:43;;;;;;;13.43;9.30;;;;;;;;;;5075169;28;20427;-77
2023/01/18 03:05:10;;;;;;;13.02;8.77;;;;;;;;;;5077306;28;20744;-77
2023/01/18 03:07:47;;;;;;;11.50;8.00;;;;;;;;;;5100577;28;20913;-77
2023/01/18 03:10:14;;;;;;;11.73;7.78;;;;;;;;;;5092489;28;20430;-77
2023/01/18 03:12:46;;;;;;;12.30;7.90;;;;;;;;;;5075351;28;20505;-78
2023/01/18 03:15:36;;;;;;;11.15;8.60;;;-0.70;99.90;;;;;;5086570;28;20770;-77
2023/01/18 03:18:10;;;;;;;11.85;8.18;;;;;;;;;;5078751;28;20954;-77
2023/01/18 03:20:39;;;;;;;12.75;8.48;;;;;;;;;;5090226;28;20775;-77
2023/01/18 03:25:57;;;;;;;11.38;8.63;;;;;;;;;;5091388;28;20414;-77
2023/01/18 03:34:08;;;;;;;14.67;9.70;;;;;;;;;;5085874;28;20421;-77
2023/01/18 03:36:41;;;;;;;15.05;10.20;;;;;;;;;;5085368;28;20512;-77
2023/01/18 03:39:10;;;;;;;16.33;10.38;;;;;;;;;;5075218;28;20425;-77
2023/01/18 03:41:41;;;;;;;15.27;11.13;;;;;;;;;;5091757;28;20426;-77
2023/01/18 03:44:11;;;;;;;16.02;10.68;;;;;;;;;;5075537;28;20418;-77
2023/01/18 03:46:37;;;;;;;18.20;12.07;;;;;;;;;;5075058;28;20999;-77
2023/01/18 03:49:04;;;;;;;17.80;11.70;;;;;;;;;;5073873;28;20410;-77
2023/01/18 03:51:30;;;;;;;15.70;11.45;;;;;;;;;;5074918;28;20432;-77
2023/01/18 03:54:11;;;;;;;16.42;11.02;;;;;;;;;;5092161;28;20422;-77
2023/01/18 03:56:57;;;;;;;18.00;11.50;;;;;;;;;;5089722;28;20421;-77
2023/01/18 03:59:25;;;;;;;17.90;11.68;;;;;;;;;;5071644;28;20460;-76
2023/01/18 04:01:51;;;;;;;17.80;11.82;;;;;;;;;;5106456;28;20774;-76
2023/01/18 04:04:17;;;;;;;17.55;12.77;;;;;;;;;;5112696;27;20420;-77
2023/01/18 04:06:43;;;;;;;23.77;12.80;;;;;;;;;;5082757;28;20416;-76
2023/01/18 04:09:10;;;;;;;16.42;11.10;;;;;;;;;;5123131;27;20560;-77
2023/01/18 04:11:36;;;;;;;16.23;11.18;;;;;;;;;;5092248;28;20769;-77
2023/01/18 04:14:02;;;;;;;16.38;11.50;;;;;;;;;;5074986;28;20425;-76
2023/01/18 04:16:28;;;;;;;16.75;11.32;;;;;;;;;;5081919;28;20936;-77
2023/01/18 04:18:55;;;;;;;14.48;10.25;;;;;;;;;;5087235;28;21006;-76
2023/01/18 04:21:21;;;;;;;17.00;10.82;;;;;;;;;;5066140;28;20531;-76
2023/01/18 04:23:47;;;;;;;15.13;11.00;;;;;;;;;;5055255;28;20410;-76
2023/01/18 04:26:15;;;;;;;16.88;11.68;;;;;;;;;;5074349;28;20446;-77
2023/01/18 04:28:41;;;;;;;16.30;10.85;;;;;;;;;;5092142;28;20485;-77
2023/01/18 04:31:07;;;;;;;14.40;10.27;;;;;;;;;;5074645;28;20418;-76
2023/01/18 04:33:36;;;;;;;17.27;10.07;;;;;;;;;;5073478;28;20422;-77
2023/01/18 04:36:03;;;;;;;17.20;10.90;;;;;;;;;;5072319;28;20453;-76
2023/01/18 04:38:29;;;;;;;14.20;10.13;;;;;;;;;;5090000;28;20448;-77
2023/01/18 04:40:55;;;;;;;16.37;10.07;;;;;;;;;;5074248;28;20452;-77
2023/01/18 04:43:21;;;;;;;16.70;10.90;;;;;;;;;;5088906;28;20478;-77
2023/01/18 04:45:54;;;;;;;19.92;11.85;;;;;;;;;;5057622;28;20429;-77
2023/01/18 04:48:20;;;;;;;16.45;11.30;;;;;;;;;;5091004;28;20913;-77
2023/01/18 04:50:47;;;;;;;18.33;11.20;;;;;;;;;;5076165;28;20822;-77
2023/01/18 04:53:13;;;;;;;15.45;10.88;;;;;;;;;;5073997;28;20497;-77
2023/01/18 04:55:39;;;;;;;19.93;11.90;;;;;;;;;;5070475;28;20563;-76
2023/01/18 04:58:05;;;;;;;16.70;11.73;;;;;;;;;;5074019;28;20436;-77
2023/01/18 05:00:31;;;;;;;19.33;11.80;;;;;;;;;;5072183;28;20450;-77
2023/01/18 05:02:57;;;;;;;18.10;11.45;;;;;;;;;;5090595;28;20422;-77
2023/01/18 05:05:24;;;;;;;18.42;12.45;;;;;;;;;;5090619;28;20468;-77
2023/01/18 05:07:50;;;;;;;37.22;15.02;;;;;;;;;;5089247;28;20534;-77
2023/01/18 05:10:16;;;;;;;20.77;12.43;;;;;;;;;;5107708;28;20430;-77
2023/01/18 05:12:42;;;;;;;18.95;12.95;;;;;;;;;;5074108;28;20424;-78
2023/01/18 05:15:08;;;;;;;19.77;12.68;;;;;;;;;;5072962;28;20421;-76
2023/01/18 05:17:34;;;;;;;21.27;12.95;;;;;;;;;;5106760;28;20929;-77
2023/01/18 05:20:01;;;;;;;18.00;12.65;;;;;;;;;;5073615;28;20712;-77
2023/01/18 05:22:28;;;;;;;19.23;13.27;;;;;;;;;;5073872;28;20418;-77
2023/01/18 05:24:54;;;;;;;21.92;14.25;;;;;;;;;;5073890;28;20409;-78
2023/01/18 05:27:20;;;;;;;20.33;13.40;;;;;;;;;;5072390;28;20747;-77
2023/01/18 05:29:50;;;;;;;20.52;13.77;;;;;;;;;;5074852;28;20464;-77
2023/01/18 05:32:16;;;;;;;20.48;13.85;;;;;;;;;;5071391;28;20436;-77
2023/01/18 05:34:42;;;;;;;18.85;13.90;;;;;;;;;;5091347;28;20410;-76
2023/01/18 05:37:14;;;;;;;18.50;13.27;;;;;;;;;;5072216;28;20427;-77
2023/01/18 05:39:40;;;;;;;21.60;14.52;;;;;;;;;;5090255;28;20425;-76
2023/01/18 05:42:07;;;;;;;24.55;15.40;;;;;;;;;;5071745;28;20917;-76
2023/01/18 05:44:33;;;;;;;20.73;13.67;;;;;;;;;;5072885;28;20504;-76
2023/01/18 05:47:00;;;;;;;21.25;13.77;;;;;;;;;;5094376;28;20498;-77
2023/01/18 05:49:26;;;;;;;22.13;14.20;;;;;;;;;;5092609;28;20820;-77
2023/01/18 05:51:52;;;;;;;18.20;13.03;;;;;;;;;;5064891;28;20914;-77
2023/01/18 05:54:18;;;;;;;18.67;13.07;;;;;;;;;;5070738;28;20490;-77
2023/01/18 05:56:45;;;;;;;20.95;14.13;;;;;;;;;;5087826;28;20502;-77
2023/01/18 05:59:13;;;;;;;18.50;12.55;;;;;;;;;;5075881;28;20425;-77
2023/01/18 06:01:39;;;;;;;19.40;12.63;;;;;;;;;;5081397;28;20441;-76
2023/01/18 06:04:05;;;;;;;20.23;12.60;;;;;;;;;;5073249;28;20902;-77
2023/01/18 06:06:31;;;;;;;20.27;12.60;;;;;;;;;;5069560;28;20424;-76
2023/01/18 06:08:57;;;;;;;18.48;12.23;;;;;;;;;;5072434;28;20413;-76
2023/01/18 06:11:23;;;;;;;18.33;11.90;;;;;;;;;;5069829;28;20414;-76
2023/01/18 06:13:51;;;;;;;23.00;13.13;;;;;;;;;;5067893;28;20424;-76
2023/01/18 06:16:17;;;;;;;36.07;13.30;;;;;;;;;;5091046;28;20448;-76
2023/01/18 06:18:43;;;;;;;37.10;14.48;;;;;;;;;;5078675;28;20427;-77
2023/01/18 06:21:10;;;;;;;36.45;13.98;;;;;;;;;;5110282;28;20763;-77
2023/01/18 06:23:36;;;;;;;25.63;13.52;;;;;;;;;;5087112;28;20483;-77
2023/01/18 06:26:03;;;;;;;36.88;16.35;;;;;;;;;;5076889;28;20417;-82
2023/01/18 06:28:29;;;;;;;23.83;13.30;;;;;;;;;;5088584;28;20463;-75
2023/01/18 06:30:55;;;;;;;18.73;13.35;;;;;;;;;;5071109;28;20425;-76
2023/01/18 06:33:22;;;;;;;19.15;12.30;;;;;;;;;;5078474;28;21904;-76
2023/01/18 06:35:48;;;;;;;16.42;11.82;;;;;;;;;;5088027;28;20440;-77
2023/01/18 06:38:14;;;;;;;16.30;11.52;;;;;;;;;;5080523;28;20418;-77
2023/01/18 06:40:41;;;;;;;17.92;11.93;;;;;;;;;;5069900;28;20431;-77
2023/01/18 06:43:09;;;;;;;22.08;12.40;;;;;;;;;;5071484;28;20414;-77
2023/01/18 06:45:35;;;;;;;20.75;12.27;;;;;;;;;;5066104;28;20431;-78
2023/01/18 06:48:01;;;;;;;18.48;11.55;;;;;;;;;;5070873;28;20473;-76
2023/01/18 06:50:27;;;;;;;17.83;11.95;;;;;;;;;;5069698;28;21023;-78
2023/01/18 06:52:54;;;;;;;23.42;14.27;;;;;;;;;;5081940;28;20424;-77
2023/01/18 06:55:21;;;;;;;33.35;16.42;;;;;;;;;;5090996;28;20436;-77
2023/01/18 06:57:47;;;;;;;17.90;12.50;;;;;;;;;;5068693;28;20417;-77
2023/01/18 07:00:15;;;;;;;20.05;12.30;;;;;;;;;;5083760;28;20422;-77
2023/01/18 07:02:41;;;;;;;17.00;11.60;;;;;;;;;;5073921;28;20988;-77
2023/01/18 07:05:07;;;;;;;19.88;11.80;;;;;;;;;;5078111;28;20422;-77
2023/01/18 07:07:33;;;;;;;31.00;12.40;;;;;;;;;;5106297;27;20422;-77
2023/01/18 07:10:00;;;;;;;57.45;16.35;;;;;;;;;;5090665;28;20417;-78
2023/01/18 07:12:26;;;;;;;23.90;14.13;;;;;;;;;;5075942;28;20451;-78
2023/01/18 07:14:52;;;;;;;18.75;12.32;;;;;;;;;;5106922;28;20448;-77
2023/01/18 07:17:18;;;;;;;18.40;12.48;;;;;;;;;;5072273;28;20418;-79
2023/01/18 07:19:44;;;;;;;18.92;12.80;;;;;;;;;;5060656;28;20427;-78
2023/01/18 07:22:13;;;;;;;18.23;12.20;;;;;;;;;;5112140;27;20454;-78
2023/01/18 07:24:39;;;;;;;17.23;11.40;;;;;;;;;;5088942;28;20417;-79
2023/01/18 07:27:07;;;;;;;32.90;13.77;;;;;;;;;;5069362;28;20406;-79
2023/01/18 07:29:33;;;;;;;19.38;12.25;;;;;;;;;;5074782;28;20771;-78
2023/01/18 07:32:02;;;;;;;18.05;12.00;;;;;;;;;;5083801;28;20427;-78
2023/01/18 07:34:28;;;;;;;16.53;11.60;;;;;;;;;;5078759;28;20528;-78
2023/01/18 07:36:54;;;;;;;15.20;10.90;;;;;;;;;;5081471;28;20420;-77
2023/01/18 07:39:20;;;;;;;20.80;12.70;;;;;;;;;;5109093;28;20539;-78
2023/01/18 07:41:46;;;;;;;20.77;11.63;;;;;;;;;;5094341;28;20418;-77
2023/01/18 07:44:12;;;;;;;16.07;11.00;;;;;;;;;;5075789;28;20499;-78
2023/01/18 07:46:41;;;;;;;26.75;11.48;;;;;;;;;;5064418;28;20911;-78
2023/01/18 07:49:07;;;;;;;18.40;11.20;;;;;;;;;;5071493;28;20933;-78
2023/01/18 07:51:33;;;;;;;19.90;13.57;;;;;;;;;;5074369;28;20496;-79
2023/01/18 07:54:00;;;;;;;28.03;13.13;;;;;;;;;;5059668;28;20413;-79
2023/01/18 07:56:26;;;;;;;16.33;10.68;;;;;;;;;;5091049;28;20452;-79
2023/01/18 07:58:52;;;;;;;19.98;10.82;;;;;;;;;;5084256;28;20502;-78
2023/01/18 08:01:19;;;;;;;28.90;14.63;;;;;;;;;;5090142;28;20953;-79
2023/01/18 08:03:46;;;;;;;23.15;12.73;;;;;;;;;;5083845;28;20415;-79
2023/01/18 08:06:15;;;;;;;19.10;11.35;;;;;;;;;;5093374;28;20410;-77
2023/01/18 08:08:42;;;;;;;16.63;10.07;;;;;;;;;;5087158;28;21004;-77
2023/01/18 08:11:09;;;;;;;15.18;9.80;;;;;;;;;;5106428;28;20968;-78
2023/01/18 08:13:35;;;;;;;16.48;10.35;;;;;;;;;;5091484;28;20504;-79
2023/01/18 08:16:02;;;;;;;16.20;9.73;;;;;;;;;;5091428;28;20505;-79
2023/01/18 08:18:28;;;;;;;15.70;9.77;;;;;;;;;;5071957;28;20429;-77
2023/01/18 08:20:55;;;;;;;15.23;9.88;;;;;;;;;;5075662;28;20954;-78
2023/01/18 08:23:21;;;;;;;16.98;10.40;;;;;;;;;;5128103;27;20418;-78
2023/01/18 08:25:47;;;;;;;16.20;9.95;;;;;;;;;;5084741;28;20426;-79
2023/01/18 08:28:13;;;;;;;16.20;10.73;;;;;;;;;;5106113;28;20426;-78
2023/01/18 08:30:44;;;;;;;15.70;9.93;;;;;;;;;;5102198;28;20422;-79
2023/01/18 08:33:10;;;;;;;15.32;9.70;;;;;;;;;;5106194;28;20427;-79
2023/01/18 08:35:40;;;;;;;15.27;9.63;;;;;;;;;;5107664;28;20425;-78
2023/01/18 08:38:07;;;;;;;14.68;9.43;;;;;;;;;;5085914;28;20508;-78
2023/01/18 08:40:33;;;;;;;16.27;9.43;;;;;;;;;;5078838;28;20475;-78
2023/01/18 08:43:01;;;;;;;22.60;10.50;;;;;;;;;;5062798;28;20929;-78
2023/01/18 08:45:27;;;;;;;16.85;10.02;;;;;;;;;;5106007;28;20503;-79
2023/01/18 08:47:57;;;;;;;15.32;9.18;;;;;;;;;;5073719;28;20475;-79
2023/01/18 08:50:23;;;;;;;14.60;9.63;;;;;;;;;;5093861;28;20479;-79
2023/01/18 08:52:51;;;;;;;15.48;10.05;;;;;;;;;;5092604;28;20425;-79
2023/01/18 08:55:17;;;;;;;17.58;10.25;;;;;;;;;;5090163;28;20770;-78
2023/01/18 08:57:43;;;;;;;15.95;10.07;;;;;;;;;;5090138;28;20426;-78
2023/01/18 09:00:10;;;;;;;13.63;8.90;;;;;;;;;;5100517;28;20458;-78
2023/01/18 09:02:36;;;;;;;15.80;9.77;;;;;;;;;;5090515;28;20514;-78
2023/01/18 09:05:02;;;;;;;13.00;8.93;;;;;;;;;;5076625;28;20901;-79
2023/01/18 09:07:28;;;;;;;17.53;9.67;;;;;;;;;;5086173;28;20410;-79
2023/01/18 09:09:54;;;;;;;14.15;9.10;;;;;;;;;;5090292;28;20410;-78
2023/01/18 09:12:21;;;;;;;14.77;8.60;;;;;;;;;;5056200;28;20523;-79
2023/01/18 09:14:47;;;;;;;16.40;8.73;;;;;;;;;;5072206;28;20437;-79
2023/01/18 09:17:13;;;;;;;13.45;8.85;;;;;;;;;;5089624;28;20429;-79
2023/01/18 09:19:39;;;;;;;13.88;10.02;;;;;;;;;;5092646;28;20418;-79
2023/01/18 09:22:05;;;;;;;14.00;9.32;;;;;;;;;;5072964;28;20815;-79
2023/01/18 09:24:32;;;;;;;14.55;8.40;;;;;;;;;;5081199;28;20431;-79
2023/01/18 09:26:58;;;;;;;13.75;8.45;;;;;;;;;;5090574;28;21011;-79
2023/01/18 09:29:24;;;;;;;14.50;8.63;;;;;;;;;;5076744;28;20482;-79
2023/01/18 09:31:52;;;;;;;13.82;8.73;;;;;;;;;;5074790;28;20421;-79
2023/01/18 09:34:19;;;;;;;14.93;8.90;;;;;;;;;;5082208;28;20407;-80
2023/01/18 09:36:45;;;;;;;14.80;8.32;;;;;;;;;;5082138;28;20840;-78
2023/01/18 09:39:11;;;;;;;14.50;9.23;;;;;;;;;;5073323;28;20417;-79
2023/01/18 09:41:38;;;;;;;15.05;9.13;;;;;;;;;;5069157;28;21022;-79
2023/01/18 09:44:32;;;;;;;14.77;7.85;;;1.20;99.90;;;;;;5072711;28;20419;-80
2023/01/18 09:47:20;;;;;;;12.55;7.97;;;;;;;;;;5079223;28;20519;-79
2023/01/18 09:49:53;;;;;;;16.20;8.27;;;;;;;;;;5083198;28;20909;-78
2023/01/18 09:52:32;;;;;;;15.30;7.60;;;;;;;;;;5083097;28;20550;-80
2023/01/18 09:55:10;;;;;;;12.88;7.35;;;;;;;;;;5090774;28;20413;-78
2023/01/18 09:57:51;;;;;;;14.88;8.05;;;;;;;;;;5077973;28;20921;-78
2023/01/18 10:00:18;;;;;;;12.57;8.20;;;;;;;;;;5089890;28;20426;-78
2023/01/18 10:02:45;;;;;;;12.03;7.50;;;;;;;;;;5073265;28;20429;-77
2023/01/18 10:05:14;;;;;;;13.35;8.13;;;;;;;;;;5083409;28;20872;-78
2023/01/18 10:07:50;;;;;;;12.68;7.82;;;;;;;;;;5057757;28;20396;-80
2023/01/18 10:10:17;;;;;;;9.53;7.03;;;;;;;;;;5072475;28;20909;-80
2023/01/18 10:12:47;;;;;;;11.45;7.50;;;;;;;;;;5090658;28;20435;-80
2023/01/18 10:15:25;;;;;;;12.40;7.45;;;;;;;;;;5079348;28;20415;-80
2023/01/18 10:17:55;;;;;;;13.52;7.47;;;;;;;;;;5078599;28;20562;-79
2023/01/18 10:20:40;;;;;;;12.80;7.25;;;;;;;;;;5073752;28;20955;-79
2023/01/18 10:23:06;;;;;;;10.10;6.95;;;;;;;;;;5092160;28;20413;-80
2023/01/18 10:25:40;;;;;;;12.10;8.07;;;;;;;;;;5073155;28;20416;-79
2023/01/18 10:28:09;;;;;;;12.98;7.57;;;;;;;;;;5091146;28;20414;-80
2023/01/18 10:30:35;;;;;;;10.60;7.22;;;;;;;;;;5103562;28;20424;-80
2023/01/18 10:33:09;;;;;;;10.70;6.90;;;;;;;;;;5090402;28;20404;-80
2023/01/18 10:35:39;;;;;;;10.57;7.05;;;;;;;;;;5106573;28;20938;-79
2023/01/18 10:38:11;;;;;;;10.45;7.15;;;;;;;;;;5070944;28;20889;-80
2023/01/18 10:40:38;;;;;;;11.00;6.97;;;;;;;;;;5087391;28;20449;-80
2023/01/18 10:43:09;;;;;;;12.93;7.00;;;;;;;;;;5069639;28;20411;-80
2023/01/18 10:45:35;;;;;;;13.10;7.13;;;;;;;;;;5122403;27;20832;-80
2023/01/18 10:48:16;;;;;;;11.70;7.30;;;;;;;;;;5127172;27;20516;-80
2023/01/18 10:50:50;;;;;;;11.68;7.43;;;;;;;;;;5110290;28;20410;-81
2023/01/18 10:53:20;;;;;;;13.20;6.65;;;;;;;;;;5090986;28;20429;-81
2023/01/18 10:55:55;;;;;;;11.70;6.60;;;;;;;;;;5091456;28;20511;-81
2023/01/18 10:58:31;;;;;;;10.13;6.63;;;;;;;;;;5087231;28;20409;-82
2023/01/18 11:00:58;;;;;;;12.40;6.95;;;;;;;;;;5078850;28;20428;-82
2023/01/18 11:03:25;;;;;;;12.18;6.43;;;;;;;;;;5091499;28;20437;-81
2023/01/18 11:05:52;;;;;;;11.05;6.40;;;;;;;;;;5112282;28;20422;-81
2023/01/18 11:08:33;;;;;;;13.30;6.28;;;;;;;;;;5094204;28;20468;-81
2023/01/18 11:11:02;;;;;;;10.40;6.47;;;;;;;;;;5077459;28;20433;-81
2023/01/18 11:13:48;;;;;;;12.30;7.00;;;;;;;;;;5087937;28;20453;-80
2023/01/18 11:16:16;;;;;;;13.87;6.40;;;;;;;;;;5102736;28;20524;-80
2023/01/18 11:18:56;;;;;;;11.30;6.15;;;;;;;;;;5077354;28;20424;-81
2023/01/18 11:21:23;;;;;;;9.60;6.05;;;;;;;;;;5087730;28;20959;-81
2023/01/18 11:23:50;;;;;;;9.32;6.00;;;;;;;;;;5076525;28;20414;-83
2023/01/18 11:26:18;;;;;;;10.80;6.13;;;;;;;;;;5082543;28;20425;-82
2023/01/18 11:28:48;;;;;;;10.52;5.93;;;;;;;;;;5093524;28;20420;-82
2023/01/18 11:31:16;;;;;;;10.88;6.50;;;;;;;;;;5124066;27;20485;-82
2023/01/18 11:33:53;;;;;;;10.13;5.90;;;;;;;;;;5091870;28;20908;-82
2023/01/18 11:36:20;;;;;;;10.53;6.03;;;;;;;;;;5075927;28;20422;-82
2023/01/18 11:38:47;;;;;;;10.60;6.07;;;;;;;;;;5093433;28;20759;-82
2023/01/18 11:41:18;;;;;;;11.45;6.03;;;;;;;;;;5082675;28;20421;-82
2023/01/18 11:43:53;;;;;;;10.77;6.20;;;;;;;;;;5124709;27;20446;-83
2023/01/18 11:46:52;;;;;;;9.68;6.50;;;3.10;99.90;;;;;;5091907;28;20414;-83
2023/01/18 11:49:30;;;;;;;9.68;5.80;;;;;;;;;;5096775;28;20402;-82
2023/01/18 11:52:01;;;;;;;11.45;6.10;;;;;;;;;;5068342;28;20922;-82
2023/01/18 11:54:27;;;;;;;10.63;6.18;;;;;;;;;;5086944;28;20500;-82
2023/01/18 11:56:54;;;;;;;9.93;5.82;;;;;;;;;;5068892;28;20414;-81
2023/01/18 11:59:25;;;;;;;8.75;5.53;;;;;;;;;;5073558;28;20500;-82
2023/01/18 12:01:51;;;;;;;10.82;5.60;;;;;;;;;;5090791;28;20414;-82
2023/01/18 12:04:32;;;;;;;9.68;5.57;;;;;;;;;;5071968;28;20438;-81
2023/01/18 12:07:07;;;;;;;12.52;5.50;;;;;;;;;;5093919;28;20853;-83
2023/01/18 12:09:45;;;;;;;10.00;5.22;;;;;;;;;;5095061;28;20414;-82
2023/01/18 12:12:17;;;;;;;10.48;5.53;;;;;;;;;;5087163;28;20416;-83
2023/01/18 12:15:10;;;;;;;9.13;5.10;;;;;;;;;;5084711;28;20468;-83
2023/01/18 12:17:36;;;;;;;8.75;4.75;;;;;;;;;;5070219;28;20418;-81
2023/01/18 12:20:10;;;;;;;10.13;5.20;;;;;;;;;;5076858;28;20521;-83
2023/01/18 12:22:52;;;;;;;8.82;4.88;;;;;;;;;;5091711;28;20414;-83
2023/01/18 12:25:18;;;;;;;8.35;4.82;;;;;;;;;;5089983;28;20500;-82
2023/01/18 12:27:51;;;;;;;8.48;4.75;;;;;;;;;;5072825;28;20414;-83
2023/01/18 12:30:36;;;;;;;8.57;4.78;;;;;;;;;;5091478;28;20848;-83
2023/01/18 12:33:15;;;;;;;8.48;4.70;;;;;;;;;;5063003;28;20395;-82
2023/01/18 12:35:41;;;;;;;8.07;4.65;;;;;;;;;;5090545;28;20417;-82
2023/01/18 12:38:16;;;;;;;8.75;4.63;;;;;;;;;;5088857;28;20825;-83
2023/01/18 12:40:42;;;;;;;9.18;4.45;;;;;;;;;;5076522;28;20824;-84
2023/01/18 12:43:36;;;;;;;9.18;4.40;;;;;;;;;;5074909;28;20421;-83
2023/01/18 12:46:08;;;;;;;8.35;4.22;;;;;;;;;;5065353;28;20426;-83
2023/01/18 12:48:57;;;;;;;7.55;4.10;;;;;;;;;;5074597;28;20422;-83
2023/01/18 12:51:25;;;;;;;8.50;4.13;;;;;;;;;;5099660;28;20758;-83
2023/01/18 12:53:55;;;;;;;7.70;3.90;;;;;;;;;;5082344;28;20438;-83
2023/01/18 12:56:38;;;;;;;8.18;4.30;;;;;;;;;;5075555;28;20417;-83
2023/01/18 12:59:06;;;;;;;14.00;4.47;;;;;;;;;;5076589;28;20401;-84
2023/01/18 13:01:37;;;;;;;7.05;4.22;;;;;;;;;;5069714;28;20471;-82
2023/01/18 13:04:16;;;;;;;6.57;3.85;;;;;;;;;;5118313;27;20422;-83
2023/01/18 13:06:45;;;;;;;9.03;4.47;;;;;;;;;;5080400;28;20456;-84
2023/01/18 13:09:20;;;;;;;9.52;4.40;;;;;;;;;;5076654;28;20414;-82
2023/01/18 13:11:49;;;;;;;8.35;4.40;;;;;;;;;;5089478;28;20428;-81
2023/01/18 13:14:27;;;;;;;9.07;4.53;;;;;;;;;;5090022;28;20453;-83
2023/01/18 13:16:57;;;;;;;9.50;4.43;;;;;;;;;;5071188;28;20422;-82
2023/01/18 13:19:26;;;;;;;9.07;4.23;;;;;;;;;;5125316;27;20413;-82
2023/01/18 13:21:59;;;;;;;7.72;4.60;;;;;;;;;;5079427;28;20445;-84
2023/01/18 13:25:07;;;;;;;9.93;4.22;;;4.40;99.90;;;;;;5091450;28;20418;-84
2023/01/18 13:27:33;;;;;;;7.90;4.35;;;;;;;;;;5069157;28;20749;-84
2023/01/18 13:30:06;;;;;;;10.13;4.47;;;;;;;;;;5055263;28;20404;-82
2023/01/18 13:32:37;;;;;;;8.98;4.32;;;;;;;;;;5071939;28;20471;-83
2023/01/18 13:35:13;;;;;;;10.35;4.60;;;;;;;;;;5063687;28;20827;-83
2023/01/18 13:37:50;;;;;;;10.40;4.68;;;;;;;;;;5091114;28;20432;-84
2023/01/18 13:40:20;;;;;;;8.30;4.32;;;;;;;;;;5122043;27;20752;-84
2023/01/18 13:42:46;;;;;;;7.77;4.60;;;;;;;;;;5105465;28;20451;-85
2023/01/18 13:45:19;;;;;;;8.85;4.47;;;;;;;;;;5073475;28;20437;-82
2023/01/18 13:47:50;;;;;;;10.60;4.45;;;;;;;;;;5074121;28;20483;-83
2023/01/18 13:50:47;;;;;;;12.90;4.90;;;;;;;;;;5079364;28;20950;-82
2023/01/18 13:53:13;;;;;;;8.88;4.78;;;;;;;;;;5094931;28;20517;-83
2023/01/18 13:55:59;;;;;;;9.00;4.80;;;;;;;;;;5111642;27;20815;-82
2023/01/18 13:58:30;;;;;;;9.07;4.60;;;;;;;;;;5069196;28;20916;-81
2023/01/18 14:00:57;;;;;;;10.23;4.67;;;;;;;;;;5089776;28;20493;-82
2023/01/18 14:03:28;;;;;;;9.00;4.70;;;;;;;;;;5089361;28;20413;-81
2023/01/18 14:05:58;;;;;;;9.30;4.65;;;;;;;;;;5078276;28;20416;-81
2023/01/18 14:08:28;;;;;;;8.23;4.60;;;;;;;;;;5090458;28;20422;-82
2023/01/18 14:11:02;;;;;;;9.88;4.88;;;;;;;;;;5108213;28;20414;-82
2023/01/18 14:13:47;;;;;;;8.65;5.18;;;;;;;;;;5073929;28;20918;-82
2023/01/18 14:16:21;;;;;;;10.37;5.23;;;;;;;;;;5072529;28;20817;-82
2023/01/18 14:18:55;;;;;;;10.82;5.25;;;;;;;;;;5083443;28;20438;-82
2023/01/18 14:21:21;;;;;;;9.60;5.07;;;;;;;;;;5075467;28;20418;-82
2023/01/18 14:24:06;;;;;;;8.40;5.30;;;;;;;;;;5091651;28;20785;-81
2023/01/18 14:26:34;;;;;;;10.50;5.50;;;;;;;;;;5079582;28;20427;-84
2023/01/18 14:29:20;;;;;;;11.88;5.03;;;;;;;;;;5087791;28;20417;-84
2023/01/18 14:31:48;;;;;;;9.32;5.38;;;;;;;;;;5054021;28;20842;-85
2023/01/18 14:34:24;;;;;;;8.18;5.25;;;;;;;;;;5076933;28;20452;-84
2023/01/18 14:36:50;;;;;;;8.23;4.72;;;;;;;;;;5079964;28;20426;-84
2023/01/18 14:39:17;;;;;;;10.65;5.10;;;;;;;;;;5121501;28;20471;-85
2023/01/18 14:41:48;;;;;;;8.18;4.53;;;;;;;;;;5086446;28;20478;-84
2023/01/18 14:44:22;;;;;;;8.50;4.90;;;;;;;;;;5118276;28;20422;-85
2023/01/18 14:46:52;;;;;;;8.43;4.53;;;;;;;;;;5094713;28;20409;-85
2023/01/18 14:49:26;;;;;;;9.03;4.90;;;;;;;;;;5094703;28;20766;-85
2023/01/18 14:51:53;;;;;;;9.13;5.20;;;;;;;;;;5079148;28;20421;-84
2023/01/18 14:54:23;;;;;;;11.90;5.55;;;;;;;;;;5073558;28;20915;-85
2023/01/18 14:56:49;;;;;;;9.77;5.50;;;;;;;;;;5076140;28;20422;-84
2023/01/18 14:59:19;;;;;;;10.23;5.60;;;;;;;;;;5097060;28;20426;-84
2023/01/18 15:01:58;;;;;;;10.47;5.63;;;;;;;;;;5093848;28;20481;-84
2023/01/18 15:04:28;;;;;;;10.95;5.40;;;;;;;;;;5095666;28;20402;-82
2023/01/18 15:07:02;;;;;;;10.47;6.20;;;;;;;;;;5073431;28;20504;-81
2023/01/18 15:09:31;;;;;;;11.30;5.50;;;;;;;;;;5077033;28;20422;-82
2023/01/18 15:11:58;;;;;;;10.45;5.90;;;;;;;;;;5089935;28;20426;-82